Time;durP1;ratioP1;P1;durP2;ratioP2;P2;SDS_P1;SDS_P2;PMS_P1;PMS_P2;Temp;Humidity;BMP_temperature;BMP_pressure;BME280_temperature;BME280_humidity;BME280_pressure;Samples;Min_cycle;Max_cycle;Signal;HPM_P1;HPM_P2
2021/07/05 00:02:26;;;;;;;1.40;1.30;;;;;;;;;;5113790;28;20301;-87
2021/07/05 00:04:53;;;;;;;1.10;1.10;;;;;;;;;;5113333;28;20195;-87
2021/07/05 00:07:21;;;;;;;1.48;1.38;;;;;;;;;;5113333;28;20206;-87
2021/07/05 00:09:48;;;;;;;1.20;1.20;;;;;;;;;;5113278;28;20203;-87
2021/07/05 00:12:16;;;;;;;1.30;1.25;;;;;;;;;;5113720;28;20224;-87
2021/07/05 00:14:43;;;;;;;1.10;1.10;;;;;;;;;;5113659;28;20200;-87
2021/07/05 00:17:12;;;;;;;1.50;1.40;;;;;;;;;;5114101;28;20184;-86
2021/07/05 00:19:40;;;;;;;1.15;1.15;;;;;;;;;;5113643;28;20188;-87
2021/07/05 00:22:08;;;;;;;1.50;1.40;;;;;;;;;;5113018;28;20251;-87
2021/07/05 00:24:37;;;;;;;2.58;1.00;;;;;;;;;;5113398;28;20551;-87
2021/07/05 00:27:05;;;;;;;1.05;0.98;;;;;;;;;;5113174;28;20207;-86
2021/07/05 00:29:32;;;;;;;1.58;1.30;;;;;;;;;;5113909;28;20282;-86
2021/07/05 00:32:00;;;;;;;1.52;1.42;;;;;;;;;;5113259;28;20224;-87
2021/07/05 00:34:29;;;;;;;1.30;1.20;;;;;;;;;;5113060;28;20203;-87
2021/07/05 00:36:56;;;;;;;1.13;1.13;;;;;;;;;;5113420;28;20222;-87
2021/07/05 00:39:24;;;;;;;0.80;0.80;;;;;;;;;;5112670;28;20206;-86
2021/07/05 00:41:52;;;;;;;1.00;1.00;;;;;;;;;;5112765;28;20724;-87
2021/07/05 00:44:23;;;;;;;1.40;1.30;;;;;;;;;;5113296;28;20211;-87
2021/07/05 00:46:50;;;;;;;1.35;1.25;;;;;;;;;;5112608;28;20674;-87
2021/07/05 00:49:19;;;;;;;1.45;1.35;;;;;;;;;;5113125;28;20634;-86
2021/07/05 00:51:48;;;;;;;0.98;0.98;;;;;;;;;;5113141;28;20317;-87
2021/07/05 00:54:18;;;;;;;1.38;1.20;;;;;;;;;;5112794;28;20573;-87
2021/07/05 00:56:45;;;;;;;1.17;1.17;;;;;;;;;;5113106;28;20191;-86
2021/07/05 00:59:14;;;;;;;0.80;0.80;;;;;;;;;;5113117;28;20204;-87
2021/07/05 01:01:41;;;;;;;1.27;1.17;;;;;;;;;;5112935;28;20215;-88
2021/07/05 01:04:11;;;;;;;1.13;1.08;;;;;;;;;;5113138;28;20184;-87
2021/07/05 01:06:40;;;;;;;0.90;0.90;;;;;;;;;;5113035;28;20543;-87
2021/07/05 01:09:08;;;;;;;1.27;1.27;;;;;;;;;;5116809;28;20573;-87
2021/07/05 01:11:36;;;;;;;1.65;1.55;;;;;;;;;;5117201;28;20219;-86
2021/07/05 01:14:04;;;;;;;2.30;1.83;;;;;;;;;;5117237;28;20204;-87
2021/07/05 01:16:33;;;;;;;1.65;1.55;;;;;;;;;;5116940;28;20642;-87
2021/07/05 01:19:00;;;;;;;2.20;2.00;;;;;;;;;;5117297;28;20186;-87
2021/07/05 01:21:29;;;;;;;1.13;1.13;;;;;;;;;;5115929;28;20241;-86
2021/07/05 01:23:57;;;;;;;1.23;1.23;;;;;;;;;;5116750;28;20199;-87
2021/07/05 01:26:25;;;;;;;1.23;1.20;;;;;;;;;;5117140;28;20194;-86
2021/07/05 01:28:53;;;;;;;1.30;1.20;;;;;;;;;;5116794;28;20176;-87
2021/07/05 01:31:21;;;;;;;1.40;1.40;;;;;;;;;;5117029;28;20226;-87
2021/07/05 01:33:51;;;;;;;1.67;1.58;;;;;;;;;;5116858;28;20202;-87
2021/07/05 01:36:18;;;;;;;0.93;0.93;;;;;;;;;;5116665;28;20240;-87
2021/07/05 01:38:49;;;;;;;1.08;1.08;;;;;;;;;;5116948;28;20187;-86
2021/07/05 01:41:20;;;;;;;0.98;0.98;;;;;;;;;;5116653;28;20268;-86
2021/07/05 01:43:48;;;;;;;0.95;0.95;;;;;;;;;;5116967;28;20188;-87
2021/07/05 01:46:18;;;;;;;1.02;1.02;;;;;;;;;;5116367;28;20648;-86
2021/07/05 01:48:48;;;;;;;1.00;1.00;;;;;;;;;;5116354;28;20209;-87
2021/07/05 01:51:15;;;;;;;1.00;1.00;;;;;;;;;;5116592;28;20212;-87
2021/07/05 01:53:43;;;;;;;1.00;1.00;;;;;;;;;;5116577;28;20184;-87
2021/07/05 01:56:13;;;;;;;0.90;0.90;;;;;;;;;;5116279;28;20215;-87
2021/07/05 01:58:42;;;;;;;1.95;0.95;;;;;;;;;;5116254;28;20263;-87
2021/07/05 02:01:09;;;;;;;0.90;0.90;;;;;;;;;;5116265;28;20218;-88
2021/07/05 02:03:38;;;;;;;0.77;0.77;;;;;;;;;;5115670;28;20180;-88
2021/07/05 02:06:05;;;;;;;0.88;0.88;;;;;;;;;;5116079;28;20187;-88
2021/07/05 02:08:39;;;;;;;0.60;0.60;;;;;;;;;;5116255;28;20202;-88
2021/07/05 02:11:13;;;;;;;0.55;0.55;;;;;;;;;;5116285;28;20226;-88
2021/07/05 02:13:41;;;;;;;0.63;0.63;;;;;;;;;;5116214;28;20199;-88
2021/07/05 02:16:09;;;;;;;0.80;0.80;;;;;;;;;;5116140;28;20215;-88
2021/07/05 02:18:42;;;;;;;1.35;0.98;;;;;;;;;;5115523;28;20649;-88
2021/07/05 02:21:10;;;;;;;0.85;0.70;;;;;;;;;;5114363;28;20234;-88
2021/07/05 02:23:40;;;;;;;0.80;0.80;;;;;;;;;;5115994;28;20200;-86
2021/07/05 02:26:09;;;;;;;0.90;0.90;;;;;;;;;;5116100;28;20204;-86
2021/07/05 02:28:39;;;;;;;0.98;0.98;;;;;;;;;;5115860;28;20186;-86
2021/07/05 02:31:08;;;;;;;0.82;0.82;;;;;;;;;;5115472;28;20223;-86
2021/07/05 02:33:37;;;;;;;0.68;0.68;;;;;;;;;;5115788;28;20282;-86
2021/07/05 02:36:09;;;;;;;0.70;0.70;;;;;;;;;;5115613;28;20575;-86
2021/07/05 02:38:38;;;;;;;0.85;0.85;;;;;;;;;;5115713;28;20183;-85
2021/07/05 02:41:06;;;;;;;0.80;0.80;;;;;;;;;;5116542;28;20222;-86
2021/07/05 02:43:34;;;;;;;0.82;0.82;;;;;;;;;;5116409;28;20206;-86
2021/07/05 02:46:03;;;;;;;0.98;0.98;;;;;;;;;;5117563;28;20184;-87
2021/07/05 02:48:33;;;;;;;1.00;1.00;;;;;;;;;;5116985;28;20179;-87
2021/07/05 02:51:04;;;;;;;0.90;0.90;;;;;;;;;;5116014;28;20222;-86
2021/07/05 02:53:32;;;;;;;1.23;1.13;;;;;;;;;;5115336;28;20202;-86
2021/07/05 02:56:00;;;;;;;0.90;0.90;;;;;;;;;;5114792;28;20219;-86
2021/07/05 02:58:27;;;;;;;1.00;1.00;;;;;;;;;;5115280;28;20202;-86
2021/07/05 03:00:58;;;;;;;1.05;0.93;;;;;;;;;;5115315;28;20231;-86
2021/07/05 03:03:28;;;;;;;1.00;1.00;;;;;;;;;;5115313;28;20578;-86
2021/07/05 03:05:57;;;;;;;0.80;0.80;;;;;;;;;;5114927;28;20190;-87
2021/07/05 03:08:26;;;;;;;1.10;1.10;;;;;;;;;;5114829;28;20758;-87
2021/07/05 03:10:55;;;;;;;0.90;0.90;;;;;;;;;;5115017;28;20239;-86
2021/07/05 03:13:22;;;;;;;1.05;1.00;;;;;;;;;;5114896;28;20183;-86
2021/07/05 03:15:52;;;;;;;0.80;0.80;;;;;;;;;;5114902;28;20204;-86
2021/07/05 03:18:22;;;;;;;1.00;1.00;;;;;;;;;;5114964;28;20184;-86
2021/07/05 03:20:52;;;;;;;1.17;1.17;;;;;;;;;;5114593;28;20311;-87
2021/07/05 03:23:22;;;;;;;1.02;1.02;;;;;;;;;;5116182;28;20211;-85
2021/07/05 03:25:50;;;;;;;0.90;0.90;;;;;;;;;;5116278;28;20204;-85
2021/07/05 03:28:19;;;;;;;1.60;1.20;;;;;;;;;;5116070;28;20558;-85
2021/07/05 03:30:49;;;;;;;1.10;1.10;;;;;;;;;;5116823;28;20228;-84
2021/07/05 03:33:16;;;;;;;2.28;1.30;;;;;;;;;;5116943;28;20210;-85
2021/07/05 03:35:45;;;;;;;1.33;1.25;;;;;;;;;;5116746;28;20203;-84
2021/07/05 03:38:16;;;;;;;1.33;1.23;;;;;;;;;;5116873;28;20191;-84
2021/07/05 03:40:43;;;;;;;1.35;1.25;;;;;;;;;;5115328;28;20224;-85
2021/07/05 03:43:11;;;;;;;1.65;1.20;;;;;;;;;;5115244;28;20206;-84
2021/07/05 03:45:40;;;;;;;2.97;1.13;;;;;;;;;;5115199;28;20206;-85
2021/07/05 03:48:09;;;;;;;1.83;1.50;;;;;;;;;;5115292;28;20212;-84
2021/07/05 03:50:37;;;;;;;2.25;1.27;;;;;;;;;;5115332;28;20567;-85
2021/07/05 03:53:06;;;;;;;2.28;1.40;;;;;;;;;;5115341;28;20172;-85
2021/07/05 03:55:36;;;;;;;1.50;1.40;;;;;;;;;;5115592;28;20180;-85
2021/07/05 03:58:05;;;;;;;1.58;1.48;;;;;;;;;;5115855;28;20206;-84
2021/07/05 04:00:35;;;;;;;1.50;1.40;;;;;;;;;;5115573;28;20191;-84
2021/07/05 04:03:03;;;;;;;1.80;1.70;;;;;;;;;;5115505;28;20226;-84
2021/07/05 04:05:31;;;;;;;1.48;1.38;;;;;;;;;;5114882;28;20685;-84
2021/07/05 04:07:59;;;;;;;1.60;1.50;;;;;;;;;;5115019;28;20200;-84
2021/07/05 04:10:26;;;;;;;2.22;2.03;;;;;;;;;;5114343;28;20278;-85
2021/07/05 04:12:56;;;;;;;2.00;1.90;;;;;;;;;;5114515;28;20207;-84
2021/07/05 04:15:23;;;;;;;1.50;1.40;;;;;;;;;;5114305;28;20196;-84
2021/07/05 04:17:51;;;;;;;2.22;2.03;;;;;;;;;;5114171;28;20206;-84
2021/07/05 04:20:20;;;;;;;1.40;1.40;;;;;;;;;;5114457;28;20188;-84
2021/07/05 04:22:48;;;;;;;1.90;1.80;;;;;;;;;;5114357;28;20256;-85
2021/07/05 04:25:18;;;;;;;1.95;1.85;;;;;;;;;;5114276;28;20190;-84
2021/07/05 04:27:46;;;;;;;1.50;1.40;;;;;;;;;;5114505;28;20176;-84
2021/07/05 04:30:16;;;;;;;1.35;1.33;;;;;;;;;;5114400;28;20199;-84
2021/07/05 04:32:46;;;;;;;1.55;1.45;;;;;;;;;;5114129;28;20222;-84
2021/07/05 04:35:18;;;;;;;2.15;2.03;;;;;;;;;;5113601;28;20184;-85
2021/07/05 04:37:47;;;;;;;2.55;2.08;;;;;;;;;;5114119;28;20204;-83
2021/07/05 04:40:17;;;;;;;2.17;1.98;;;;;;;;;;5113971;28;20195;-84
2021/07/05 04:42:45;;;;;;;1.80;1.70;;;;;;;;;;5113492;28;20197;-85
2021/07/05 04:45:17;;;;;;;1.90;1.80;;;;;;;;;;5113767;28;20172;-84
2021/07/05 04:47:46;;;;;;;2.47;2.28;;;;;;;;;;5116817;28;20226;-85
2021/07/05 04:50:16;;;;;;;2.50;1.88;;;;;;;;;;5114161;28;20199;-85
2021/07/05 04:52:45;;;;;;;2.20;2.10;;;;;;;;;;5113392;28;20223;-84
2021/07/05 04:55:15;;;;;;;2.55;2.35;;;;;;;;;;5113495;28;20194;-85
2021/07/05 04:57:45;;;;;;;2.80;2.50;;;;;;;;;;5113837;28;20204;-85
2021/07/05 05:00:18;;;;;;;3.78;3.35;;;;;;;;;;5113833;28;20188;-85
2021/07/05 05:02:45;;;;;;;3.97;3.67;;;;;;;;;;5112580;28;20271;-85
2021/07/05 05:05:13;;;;;;;2.40;2.20;;;;;;;;;;5113346;28;20187;-85
2021/07/05 05:07:40;;;;;;;2.00;1.90;;;;;;;;;;5113190;28;20200;-84
2021/07/05 05:10:12;;;;;;;2.70;2.50;;;;;;;;;;5113233;28;20200;-85
2021/07/05 05:12:40;;;;;;;2.90;2.70;;;;;;;;;;5113112;28;20258;-85
2021/07/05 05:15:10;;;;;;;2.15;2.03;;;;;;;;;;5113350;28;20681;-86
2021/07/05 05:17:39;;;;;;;2.17;1.85;;;;;;;;;;5113882;28;20227;-85
2021/07/05 05:20:10;;;;;;;2.63;2.42;;;;;;;;;;5114014;28;20188;-85
2021/07/05 05:22:38;;;;;;;1.55;1.45;;;;;;;;;;5113911;28;20220;-86
2021/07/05 05:25:09;;;;;;;1.60;1.50;;;;;;;;;;5113767;28;20194;-84
2021/07/05 05:27:38;;;;;;;1.55;1.45;;;;;;;;;;5113299;28;20202;-85
2021/07/05 05:30:08;;;;;;;3.33;1.90;;;;;;;;;;5113664;28;20183;-86
2021/07/05 05:32:38;;;;;;;1.75;1.65;;;;;;;;;;5113616;28;20230;-86
2021/07/05 05:35:07;;;;;;;1.55;1.45;;;;;;;;;;5113533;28;20194;-85
2021/07/05 05:37:35;;;;;;;2.30;2.10;;;;;;;;;;5113440;28;20208;-86
2021/07/05 05:40:02;;;;;;;1.42;1.33;;;;;;;;;;5113368;28;20206;-86
2021/07/05 05:42:30;;;;;;;1.45;1.40;;;;;;;;;;5112973;28;20579;-86
2021/07/05 05:44:57;;;;;;;1.58;1.48;;;;;;;;;;5113090;28;20204;-86
2021/07/05 05:47:24;;;;;;;1.55;1.45;;;;;;;;;;5114877;28;20187;-84
2021/07/05 05:49:53;;;;;;;1.92;1.83;;;;;;;;;;5114276;28;20188;-85
2021/07/05 05:52:21;;;;;;;2.28;2.17;;;;;;;;;;5113930;28;20227;-85
2021/07/05 05:54:49;;;;;;;1.90;1.70;;;;;;;;;;5117533;28;20210;-84
2021/07/05 05:57:26;;;;;;;1.85;1.75;;;;;;;;;;5117957;28;20241;-85
2021/07/05 05:59:55;;;;;;;3.08;2.08;;;;;;;;;;5117845;28;20195;-85
2021/07/05 06:02:23;;;;;;;2.42;2.22;;;;;;;;;;5118205;28;20234;-85
2021/07/05 06:04:51;;;;;;;2.38;2.17;;;;;;;;;;5115076;28;20558;-85
2021/07/05 06:07:19;;;;;;;2.30;2.20;;;;;;;;;;5097202;28;20196;-85
2021/07/05 06:09:47;;;;;;;3.40;3.10;;;;;;;;;;5097681;28;20203;-85
2021/07/05 06:12:15;;;;;;;2.33;2.22;;;;;;;;;;5103309;28;20220;-84
2021/07/05 06:14:42;;;;;;;2.22;2.03;;;;;;;;;;5112023;28;20241;-85
2021/07/05 06:17:09;;;;;;;3.30;3.00;;;;;;;;;;5116536;28;20230;-85
2021/07/05 06:19:37;;;;;;;2.90;2.70;;;;;;;;;;5110702;28;20192;-85
2021/07/05 06:22:13;;;;;;;2.90;2.70;;;;;;;;;;5111269;28;20227;-86
2021/07/05 06:24:46;;;;;;;2.58;2.40;;;;;;;;;;5117454;28;20226;-85
2021/07/05 06:27:13;;;;;;;2.35;2.22;;;;;;;;;;5117833;28;20196;-84
2021/07/05 06:29:41;;;;;;;2.80;2.60;;;;;;;;;;5117323;28;20186;-86
2021/07/05 06:32:08;;;;;;;3.28;3.08;;;;;;;;;;5116256;28;20208;-85
2021/07/05 06:34:36;;;;;;;2.75;2.22;;;;;;;;;;5117210;28;20206;-85
2021/07/05 06:37:03;;;;;;;2.95;2.75;;;;;;;;;;5116665;28;20195;-85
2021/07/05 06:39:31;;;;;;;3.00;2.70;;;;;;;;;;5115373;28;20195;-85
2021/07/05 06:42:00;;;;;;;3.03;2.83;;;;;;;;;;5105539;28;20224;-85
2021/07/05 06:44:27;;;;;;;3.10;2.90;;;;;;;;;;5100253;28;20200;-84
2021/07/05 06:46:55;;;;;;;2.65;2.45;;;;;;;;;;5096011;28;20188;-85
2021/07/05 06:49:22;;;;;;;2.38;2.17;;;;;;;;;;5106221;28;20188;-85
2021/07/05 06:51:51;;;;;;;2.42;2.22;;;;;;;;;;5116937;28;20649;-84
2021/07/05 06:54:18;;;;;;;2.10;2.00;;;;;;;;;;5108053;28;20550;-84
2021/07/05 06:56:46;;;;;;;2.30;2.20;;;;;;;;;;5111896;27;20195;-84
2021/07/05 06:59:14;;;;;;;2.00;1.90;;;;;;;;;;5120022;27;20555;-83
2021/07/05 07:01:42;;;;;;;2.40;2.00;;;;;;;;;;5113609;28;20211;-84
2021/07/05 07:04:09;;;;;;;2.95;2.70;;;;;;;;;;5115401;28;20180;-85
2021/07/05 07:06:37;;;;;;;2.53;2.15;;;;;;;;;;5102763;28;20201;-84
2021/07/05 07:09:06;;;;;;;2.40;1.70;;;;;;;;;;5108380;28;20190;-85
2021/07/05 07:11:33;;;;;;;2.65;2.45;;;;;;;;;;5103737;28;20220;-85
2021/07/05 07:14:01;;;;;;;2.45;2.28;;;;;;;;;;5113529;28;20788;-85
2021/07/05 07:16:32;;;;;;;2.05;1.92;;;;;;;;;;5097934;28;20200;-87
2021/07/05 07:19:08;;;;;;;2.05;1.95;;;;;;;;;;5093526;28;20316;-85
2021/07/05 07:21:36;;;;;;;2.10;1.90;;;;;;;;;;5047885;28;20239;-87
2021/07/05 07:24:04;;;;;;;1.98;1.88;;;;;;;;;;4992820;28;20249;-86
2021/07/05 07:26:32;;;;;;;3.13;2.50;;;;;;;;;;4992016;28;20681;-86
2021/07/05 07:29:00;;;;;;;3.03;2.75;;;;;;;;;;4993919;28;20199;-85
2021/07/05 07:31:29;;;;;;;2.60;2.40;;;;;;;;;;4993474;28;20310;-85
2021/07/05 07:33:56;;;;;;;2.13;2.03;;;;;;;;;;4992137;28;20204;-85
2021/07/05 07:36:25;;;;;;;3.30;2.13;;;;;;;;;;5000286;28;20210;-86
2021/07/05 07:38:55;;;;;;;2.50;2.30;;;;;;;;;;5013055;28;20758;-85
2021/07/05 07:41:24;;;;;;;1.70;1.60;;;;;;;;;;5012486;28;20648;-85
2021/07/05 07:43:52;;;;;;;2.30;2.10;;;;;;;;;;5012587;28;20290;-86
2021/07/05 07:46:20;;;;;;;5.95;2.67;;;;;;;;;;5012242;28;20191;-85
2021/07/05 07:48:48;;;;;;;2.45;2.30;;;;;;;;;;5012299;28;20215;-87
2021/07/05 07:51:16;;;;;;;2.38;1.95;;;;;;;;;;5011115;28;20223;-85
2021/07/05 07:53:43;;;;;;;2.30;1.77;;;;;;;;;;5011982;28;20188;-85
2021/07/05 07:56:11;;;;;;;2.17;2.08;;;;;;;;;;5012636;28;20290;-86
2021/07/05 07:58:38;;;;;;;5.28;2.70;;;;;;;;;;5013031;28;20223;-86
2021/07/05 08:01:07;;;;;;;2.33;2.22;;;;;;;;;;5013423;28;20230;-86
2021/07/05 08:03:35;;;;;;;2.20;2.10;;;;;;;;;;5012528;28;20204;-86
2021/07/05 08:06:03;;;;;;;1.85;1.75;;;;;;;;;;5011740;28;20187;-86
2021/07/05 08:08:31;;;;;;;1.60;1.50;;;;;;;;;;5011309;28;20184;-86
2021/07/05 08:10:58;;;;;;;1.77;1.67;;;;;;;;;;5011409;28;20603;-85
2021/07/05 08:13:26;;;;;;;2.30;2.10;;;;;;;;;;5010466;28;20207;-84
2021/07/05 08:15:54;;;;;;;1.70;1.60;;;;;;;;;;5010475;28;20194;-85
2021/07/05 08:18:22;;;;;;;2.03;1.92;;;;;;;;;;5010074;28;20234;-85
2021/07/05 08:20:49;;;;;;;1.70;1.60;;;;;;;;;;5024248;28;20223;-85
2021/07/05 08:23:19;;;;;;;1.63;1.52;;;;;;;;;;5113913;28;20218;-86
2021/07/05 08:25:46;;;;;;;2.85;1.42;;;;;;;;;;5113619;28;20223;-86
2021/07/05 08:28:15;;;;;;;1.88;1.77;;;;;;;;;;5113713;28;20203;-86
2021/07/05 08:30:44;;;;;;;2.70;1.95;;;;;;;;;;5113927;28;20311;-85
2021/07/05 08:33:14;;;;;;;1.63;1.52;;;;;;;;;;5114727;28;20211;-85
2021/07/05 08:35:42;;;;;;;1.80;1.70;;;;;;;;;;5113600;28;20242;-86
2021/07/05 08:38:09;;;;;;;1.80;1.70;;;;;;;;;;5113611;28;20211;-85
2021/07/05 08:40:38;;;;;;;2.47;1.83;;;;;;;;;;5113594;28;20176;-85
2021/07/05 08:43:06;;;;;;;1.67;1.58;;;;;;;;;;5113371;28;20190;-85
2021/07/05 08:45:33;;;;;;;2.05;1.85;;;;;;;;;;5112872;28;20172;-85
2021/07/05 08:48:03;;;;;;;1.98;1.88;;;;;;;;;;5113264;28;20184;-85
2021/07/05 08:50:31;;;;;;;1.38;1.27;;;;;;;;;;5113311;28;20218;-85
2021/07/05 08:52:59;;;;;;;1.20;1.13;;;;;;;;;;5113110;28;20187;-85
2021/07/05 08:55:29;;;;;;;1.58;1.48;;;;;;;;;;5113040;28;20172;-85
2021/07/05 08:57:58;;;;;;;1.60;1.50;;;;;;;;;;5113721;28;20179;-84
2021/07/05 09:00:29;;;;;;;1.60;1.50;;;;;;;;;;5113049;28;20203;-85
2021/07/05 09:02:59;;;;;;;1.38;1.27;;;;;;;;;;5113055;28;20202;-84
2021/07/05 09:05:27;;;;;;;1.15;1.15;;;;;;;;;;5112944;28;20176;-85
2021/07/05 09:08:02;;;;;;;1.25;1.25;;;;;;;;;;5113155;28;20195;-85
2021/07/05 09:10:44;;;;;;;1.00;1.00;;;;;;;;;;5112797;28;20202;-85
2021/07/05 09:13:17;;;;;;;1.67;1.60;;;;;;;;;;5112941;28;20263;-85
2021/07/05 09:15:49;;;;;;;1.35;1.25;;;;;;;;;;5112649;28;20194;-85
2021/07/05 09:18:36;;;;;;;1.27;1.20;;;;;;;;;;5112976;28;20241;-85
2021/07/05 09:21:19;;;;;;;1.13;1.02;;;;;;;;;;5112303;28;20231;-85
2021/07/05 09:24:00;;;;;;;1.25;1.15;;;;;;;;;;5113963;28;20188;-85
2021/07/05 09:26:35;;;;;;;0.98;0.98;;;;;;;;;;5114805;28;20234;-85
2021/07/05 09:29:20;;;;;;;1.10;1.10;;;;;;;;;;5118729;28;20595;-84
2021/07/05 09:31:53;;;;;;;1.00;1.00;;;;;;;;;;5121404;28;20212;-85
2021/07/05 09:34:24;;;;;;;1.02;1.02;;;;;;;;;;5119528;28;20186;-84
2021/07/05 09:36:55;;;;;;;0.80;0.80;;;;;;;;;;5109727;28;20666;-84
2021/07/05 09:39:25;;;;;;;0.90;0.90;;;;;;;;;;5096714;28;20697;-85
2021/07/05 09:41:55;;;;;;;1.00;1.00;;;;;;;;;;5096313;28;20314;-84
2021/07/05 09:44:28;;;;;;;0.93;0.93;;;;;;;;;;5096343;28;20185;-84
2021/07/05 09:46:57;;;;;;;0.82;0.82;;;;;;;;;;5108023;28;20195;-84
2021/07/05 09:49:28;;;;;;;1.30;1.30;;;;;;;;;;5116724;28;20180;-85
2021/07/05 09:52:26;;;;;;;1.00;1.00;;;;;;;;;;5116389;28;20230;-86
2021/07/05 09:54:57;;;;;;;1.00;1.00;;;;;;;;;;5013787;28;20196;-86
2021/07/05 09:57:40;;;;;;;1.00;1.00;;;;;;;;;;5079119;28;20211;-85
2021/07/05 10:00:19;;;;;;;1.25;1.15;;;;;;;;;;5095584;28;20227;-84
2021/07/05 10:03:00;;;;;;;1.30;1.30;;;;;;;;;;5095920;28;20192;-85
2021/07/05 10:05:32;;;;;;;1.20;1.10;;;;;;;;;;5095482;28;20172;-85
2021/07/05 10:08:03;;;;;;;1.20;1.20;;;;;;;;;;5096223;28;20185;-85
2021/07/05 10:10:32;;;;;;;1.17;1.17;;;;;;;;;;5095343;28;20272;-86
2021/07/05 10:13:02;;;;;;;1.35;1.27;;;;;;;;;;5095705;28;20199;-84
2021/07/05 10:15:32;;;;;;;1.70;1.60;;;;;;;;;;5095547;28;20267;-85
2021/07/05 10:18:00;;;;;;;1.50;1.40;;;;;;;;;;5095467;28;20638;-86
2021/07/05 10:20:30;;;;;;;1.25;1.25;;;;;;;;;;5095325;28;20223;-85
2021/07/05 10:23:02;;;;;;;1.30;1.30;;;;;;;;;;4973121;28;20562;-85
2021/07/05 10:25:34;;;;;;;1.38;1.27;;;;;;;;;;4973289;28;20197;-85
2021/07/05 10:28:05;;;;;;;1.50;1.40;;;;;;;;;;4973340;28;20212;-85
2021/07/05 10:30:34;;;;;;;1.40;1.30;;;;;;;;;;4973410;28;20193;-86
2021/07/05 10:33:03;;;;;;;1.20;1.17;;;;;;;;;;4973275;28;20193;-86
2021/07/05 10:35:36;;;;;;;1.67;1.58;;;;;;;;;;4973336;28;20192;-85
2021/07/05 10:38:12;;;;;;;1.27;1.25;;;;;;;;;;4973048;28;20199;-86
2021/07/05 10:40:42;;;;;;;1.20;1.20;;;;;;;;;;4972015;28;20219;-86
2021/07/05 10:43:14;;;;;;;2.78;1.85;;;;;;;;;;4973025;28;20794;-86
2021/07/05 10:45:46;;;;;;;1.10;1.00;;;;;;;;;;4974438;28;20232;-85
2021/07/05 10:48:15;;;;;;;1.35;1.25;;;;;;;;;;4992366;28;20207;-86
2021/07/05 10:50:54;;;;;;;1.23;1.23;;;;;;;;;;4992338;28;20219;-85
2021/07/05 10:53:54;;;;;;;1.38;1.35;;;;;;;;;;4992398;28;20180;-86
2021/07/05 10:56:44;;;;;;;2.05;1.30;;;;;;;;;;4985560;28;20204;-86
2021/07/05 10:59:37;;;;;;;0.93;0.93;;;;;;;;;;4972842;28;20213;-86
2021/07/05 11:02:44;;;;;;;1.10;1.10;;;;;;;;;;4972955;28;20239;-85
2021/07/05 11:05:37;;;;;;;1.25;1.25;;;;;;;;;;4972828;28;20247;-86
2021/07/05 11:08:26;;;;;;;1.08;1.08;;;;;;;;;;4972491;28;20185;-85
2021/07/05 11:11:25;;;;;;;1.38;1.27;;;;;;;;;;4972256;28;20227;-86
2021/07/05 11:14:16;;;;;;;1.35;1.27;;;;;;;;;;4972191;28;20204;-87
2021/07/05 11:17:14;;;;;;;1.10;1.10;;;;;;;;;;4972048;28;20212;-87
2021/07/05 11:19:49;;;;;;;1.13;1.13;;;;;;;;;;4973318;28;20209;-86
2021/07/05 11:22:26;;;;;;;1.20;1.20;;;;;;;;;;5061164;28;20240;-85
2021/07/05 11:25:04;;;;;;;1.00;1.00;;;;;;;;;;5094343;28;20192;-85
2021/07/05 11:27:53;;;;;;;1.00;1.00;;;;;;;;;;5111010;28;20199;-85
2021/07/05 11:30:25;;;;;;;1.48;1.40;;;;;;;;;;5109471;28;20196;-86
2021/07/05 11:32:56;;;;;;;2.25;1.00;;;;;;;;;;5114529;28;20192;-86
2021/07/05 11:35:48;;;;;;;1.20;1.10;;;;;;;;;;5114605;28;20587;-86
2021/07/05 11:38:34;;;;;;;1.10;1.10;;;;;;;;;;5093911;28;20200;-86
2021/07/05 11:41:14;;;;;;;1.20;1.10;;;;;;;;;;5093910;28;20513;-85
2021/07/05 11:43:51;;;;;;;0.77;0.77;;;;;;;;;;5093825;28;20203;-86
2021/07/05 11:46:48;;;;;;;0.65;0.65;;;;;;;;;;5100803;28;20198;-86
2021/07/05 11:49:24;;;;;;;0.98;0.98;;;;;;;;;;5113878;28;20200;-86
2021/07/05 11:51:56;;;;;;;0.95;0.95;;;;;;;;;;5113814;28;20294;-85
2021/07/05 11:54:27;;;;;;;0.98;0.98;;;;;;;;;;5114032;28;20222;-85
2021/07/05 11:56:56;;;;;;;0.88;0.70;;;;;;;;;;5101488;28;20192;-85
2021/07/05 11:59:25;;;;;;;0.98;0.98;;;;;;;;;;5093520;28;20191;-85
2021/07/05 12:02:01;;;;;;;1.10;1.10;;;;;;;;;;5093201;28;20247;-86
2021/07/05 12:04:32;;;;;;;1.40;1.05;;;;;;;;;;5093211;28;20199;-85
2021/07/05 12:07:03;;;;;;;0.80;0.80;;;;;;;;;;5105584;28;20195;-85
2021/07/05 12:09:33;;;;;;;1.15;1.15;;;;;;;;;;5113877;28;20184;-86
2021/07/05 12:12:09;;;;;;;0.90;0.90;;;;;;;;;;5113894;28;20222;-85
2021/07/05 12:14:37;;;;;;;0.80;0.80;;;;;;;;;;5113619;28;20709;-85
2021/07/05 12:17:06;;;;;;;0.82;0.82;;;;;;;;;;5113059;28;20202;-86
2021/07/05 12:19:37;;;;;;;0.93;0.93;;;;;;;;;;5113824;28;20190;-85
2021/07/05 12:22:08;;;;;;;0.88;0.88;;;;;;;;;;5112817;28;20265;-85
2021/07/05 12:24:38;;;;;;;0.90;0.90;;;;;;;;;;5113137;28;20626;-86
2021/07/05 12:27:08;;;;;;;0.90;0.90;;;;;;;;;;5115904;28;20192;-86
2021/07/05 12:29:39;;;;;;;0.73;0.73;;;;;;;;;;5113853;28;20203;-85
2021/07/05 12:35:20;;;;;;;0.80;0.80;;;;;;;;;;5055333;28;20268;-85
2021/07/05 12:37:53;;;;;;;0.75;0.75;;;;;;;;;;5113046;28;20180;-86
2021/07/05 12:40:23;;;;;;;0.93;0.93;;;;;;;;;;5113685;28;20196;-86
2021/07/05 12:42:52;;;;;;;1.02;1.00;;;;;;;;;;5116997;28;20184;-85
2021/07/05 12:45:25;;;;;;;1.40;1.30;;;;;;;;;;5113287;28;20188;-85
2021/07/05 12:47:57;;;;;;;0.98;0.98;;;;;;;;;;5113111;28;20669;-85
2021/07/05 12:50:28;;;;;;;0.80;0.80;;;;;;;;;;5113343;28;20198;-85
2021/07/05 12:53:14;;;;;;;0.90;0.77;;;;;;;;;;5113648;28;20195;-85
2021/07/05 12:55:51;;;;;;;0.90;0.90;;;;;;;;;;5113355;28;20202;-85
2021/07/05 12:58:35;;;;;;;0.73;0.73;;;;;;;;;;5128586;27;20199;-85
2021/07/05 13:01:03;;;;;;;0.70;0.70;;;;;;;;;;5133782;27;20233;-85
2021/07/05 13:03:32;;;;;;;0.70;0.70;;;;;;;;;;5133418;27;20186;-85
2021/07/05 13:06:06;;;;;;;0.88;0.88;;;;;;;;;;5129507;27;20202;-86
2021/07/05 13:08:36;;;;;;;0.85;0.80;;;;;;;;;;5113043;28;20202;-86
2021/07/05 13:11:12;;;;;;;0.70;0.70;;;;;;;;;;5112917;28;20578;-85
2021/07/05 13:13:43;;;;;;;0.57;0.57;;;;;;;;;;5112846;28;20228;-85
2021/07/05 13:16:19;;;;;;;0.70;0.70;;;;;;;;;;5112696;28;20184;-86
2021/07/05 13:18:47;;;;;;;0.68;0.68;;;;;;;;;;5112940;28;20222;-85
2021/07/05 13:21:30;;;;;;;0.80;0.80;;;;;;;;;;5112647;28;20701;-84
2021/07/05 13:24:12;;;;;;;0.88;0.88;;;;;;;;;;5113086;28;20184;-85
2021/07/05 13:26:40;;;;;;;0.90;0.90;;;;;;;;;;5112424;28;20200;-83
2021/07/05 13:29:17;;;;;;;1.13;0.90;;;;;;;;;;5113160;28;20189;-84
2021/07/05 13:31:44;;;;;;;1.10;1.10;;;;;;;;;;5112580;28;20238;-86
2021/07/05 13:34:41;;;;;;;0.90;0.90;;;;;;;;;;5112548;28;20189;-84
2021/07/05 13:37:13;;;;;;;0.90;0.90;;;;;;;;;;5112485;28;20270;-84
2021/07/05 13:39:44;;;;;;;0.80;0.80;;;;;;;;;;5113432;28;20194;-85
2021/07/05 13:42:18;;;;;;;1.05;1.05;;;;;;;;;;5112552;28;20239;-84
2021/07/05 13:44:48;;;;;;;0.70;0.70;;;;;;;;;;5112609;28;20192;-83
2021/07/05 13:47:22;;;;;;;0.80;0.80;;;;;;;;;;5112814;28;20196;-84
2021/07/05 13:50:15;;;;;;;0.90;0.90;;;;;;;;;;5113184;28;20196;-84
2021/07/05 13:52:44;;;;;;;0.80;0.80;;;;;;;;;;5112327;28;20764;-84
2021/07/05 13:55:33;;;;;;;0.90;0.90;;;;;;;;;;5112756;28;20187;-84
2021/07/05 13:58:07;;;;;;;0.80;0.80;;;;;;;;;;5113366;28;20195;-84
2021/07/05 14:00:39;;;;;;;0.68;0.68;;;;;;;;;;5113029;28;20180;-84
2021/07/05 14:03:08;;;;;;;1.52;0.90;;;;;;;;;;5112750;28;20214;-85
2021/07/05 14:05:37;;;;;;;1.00;1.00;;;;;;;;;;5111843;28;20661;-84
2021/07/05 14:08:07;;;;;;;0.95;0.95;;;;;;;;;;5112585;28;20188;-84
2021/07/05 14:10:37;;;;;;;1.65;0.80;;;;;;;;;;5106558;28;20570;-84
2021/07/05 14:13:06;;;;;;;0.80;0.80;;;;;;;;;;5094335;28;20200;-84
2021/07/05 14:15:34;;;;;;;0.70;0.70;;;;;;;;;;5112839;28;20180;-85
2021/07/05 14:18:03;;;;;;;0.90;0.90;;;;;;;;;;5116184;28;20192;-85
2021/07/05 14:20:31;;;;;;;1.02;1.02;;;;;;;;;;5114647;28;20286;-84
2021/07/05 14:22:59;;;;;;;0.75;0.75;;;;;;;;;;4987284;28;20205;-84
2021/07/05 14:25:27;;;;;;;0.80;0.80;;;;;;;;;;4981820;28;20192;-84
2021/07/05 14:27:56;;;;;;;0.75;0.75;;;;;;;;;;4992933;28;20208;-84
2021/07/05 14:30:24;;;;;;;0.60;0.60;;;;;;;;;;4992858;28;20591;-85
2021/07/05 14:32:52;;;;;;;0.70;0.70;;;;;;;;;;4993030;28;20650;-84
2021/07/05 14:35:19;;;;;;;1.00;1.00;;;;;;;;;;4992952;28;20211;-84
2021/07/05 14:37:47;;;;;;;0.90;0.90;;;;;;;;;;4992415;28;20578;-84
2021/07/05 14:40:16;;;;;;;1.08;1.08;;;;;;;;;;4992451;28;20207;-85
2021/07/05 14:42:43;;;;;;;1.65;1.08;;;;;;;;;;4975699;28;20224;-83
2021/07/05 14:45:14;;;;;;;0.90;0.90;;;;;;;;;;4972922;28;20200;-83
2021/07/05 14:47:43;;;;;;;0.90;0.90;;;;;;;;;;4990180;28;20219;-85
2021/07/05 14:50:14;;;;;;;0.90;0.90;;;;;;;;;;4988389;28;20193;-84
2021/07/05 14:52:42;;;;;;;1.27;0.95;;;;;;;;;;4982460;28;20211;-85
2021/07/05 14:55:12;;;;;;;1.00;1.00;;;;;;;;;;4979590;28;20200;-86
2021/07/05 14:57:41;;;;;;;0.90;0.90;;;;;;;;;;4990472;28;20202;-85
2021/07/05 15:00:15;;;;;;;0.90;0.90;;;;;;;;;;4992666;28;20198;-86
2021/07/05 15:02:43;;;;;;;0.80;0.80;;;;;;;;;;4992819;28;20229;-85
2021/07/05 15:05:13;;;;;;;1.10;1.10;;;;;;;;;;4992874;28;20231;-85
2021/07/05 15:07:41;;;;;;;1.05;1.05;;;;;;;;;;4994601;28;20200;-85
2021/07/05 15:10:12;;;;;;;1.00;1.00;;;;;;;;;;4990176;28;20207;-85